createdAt,value
2019-03-25T00:00:05.842Z,0.00
2019-03-25T00:01:05.851Z,0.00
2019-03-25T00:02:05.831Z,0.00
2019-03-25T00:03:05.797Z,0.00
2019-03-25T00:04:05.850Z,0.00
2019-03-25T00:05:05.779Z,8.00
2019-03-25T00:06:05.763Z,16.00
2019-03-25T00:07:05.772Z,20.00
2019-03-25T00:08:05.778Z,24.00
2019-03-25T00:09:05.893Z,20.00
2019-03-25T00:10:05.788Z,20.00
2019-03-25T00:11:05.759Z,24.00
2019-03-25T00:12:05.693Z,24.00
2019-03-25T00:13:05.689Z,0.00
2019-03-25T00:14:05.684Z,0.00
2019-03-25T00:15:05.710Z,0.00
2019-03-25T00:16:05.672Z,0.00
2019-03-25T00:17:05.645Z,0.00
2019-03-25T00:18:05.643Z,0.00
2019-03-25T00:19:05.638Z,0.00
2019-03-25T00:20:05.664Z,0.00
2019-03-25T00:21:05.606Z,0.00
2019-03-25T00:22:05.594Z,0.00
2019-03-25T00:23:05.572Z,0.00
2019-03-25T00:24:05.577Z,0.00
2019-03-25T00:25:05.566Z,0.00
2019-03-25T00:26:05.598Z,0.00
2019-03-25T00:27:05.531Z,0.00
2019-03-25T00:28:05.528Z,0.00
2019-03-25T00:29:05.507Z,0.00
2019-03-25T00:30:05.497Z,0.00
2019-03-25T00:31:05.519Z,0.00
2019-03-25T00:32:05.506Z,0.00
2019-03-25T00:33:05.465Z,0.00
2019-03-25T00:34:05.576Z,0.00
2019-03-25T00:35:05.468Z,0.00
2019-03-25T00:36:05.449Z,0.00
2019-03-25T00:37:05.442Z,0.00
2019-03-25T00:38:05.436Z,0.00
2019-03-25T00:39:05.402Z,0.00
2019-03-25T00:40:05.382Z,0.00
2019-03-25T00:41:05.383Z,0.00
2019-03-25T00:42:05.362Z,0.00
2019-03-25T00:43:05.389Z,0.00
2019-03-25T00:44:05.342Z,0.00
2019-03-25T00:45:05.328Z,0.00
2019-03-25T00:46:05.313Z,0.00
2019-03-25T00:47:05.326Z,0.00
2019-03-25T00:48:05.325Z,0.00
2019-03-25T00:49:05.347Z,0.00
2019-03-25T00:50:05.279Z,0.00
2019-03-25T00:51:05.258Z,0.00
2019-03-25T00:52:05.249Z,0.00
2019-03-25T00:53:05.237Z,0.00
2019-03-25T00:54:05.245Z,0.00
2019-03-25T00:55:05.215Z,0.00
2019-03-25T00:56:05.228Z,0.00
2019-03-25T00:57:05.229Z,0.00
2019-03-25T00:58:05.204Z,0.00
2019-03-25T00:59:05.247Z,0.00
2019-03-25T01:00:05.194Z,0.00
2019-03-25T01:01:05.196Z,0.00
2019-03-25T01:02:05.137Z,0.00
2019-03-25T01:03:05.128Z,0.00
2019-03-25T01:04:05.135Z,0.00
2019-03-25T01:05:05.665Z,0.00
2019-03-25T01:06:05.105Z,0.00
2019-03-25T01:07:05.115Z,0.00
2019-03-25T01:08:05.101Z,0.00
2019-03-25T01:09:05.095Z,0.00
2019-03-25T01:10:05.095Z,0.00
2019-03-25T01:11:05.073Z,0.00
2019-03-25T01:12:05.032Z,0.00
2019-03-25T01:13:05.041Z,0.00
2019-03-25T01:14:05.015Z,0.00
2019-03-25T01:15:05.029Z,0.00
2019-03-25T01:16:05.089Z,0.00
2019-03-25T01:17:05.000Z,0.00
2019-03-25T01:18:16.118Z,0.00
2019-03-25T01:19:05.951Z,0.00
2019-03-25T01:20:05.012Z,0.00
2019-03-25T01:21:04.988Z,0.00
2019-03-25T01:22:04.943Z,0.00
2019-03-25T01:23:05.000Z,0.00
2019-03-25T01:24:04.940Z,0.00
2019-03-25T01:25:04.944Z,0.00
2019-03-25T01:26:04.893Z,0.00
2019-03-25T01:27:05.008Z,0.00
2019-03-25T01:28:04.936Z,0.00
2019-03-25T01:29:04.894Z,0.00
2019-03-25T01:30:04.924Z,0.00
2019-03-25T01:31:04.927Z,0.00
2019-03-25T01:32:04.912Z,0.00
2019-03-25T01:33:04.798Z,0.00
2019-03-25T01:34:04.848Z,0.00
2019-03-25T01:35:04.843Z,0.00
2019-03-25T01:36:04.838Z,0.00
2019-03-25T01:37:04.916Z,0.00
2019-03-25T01:38:04.748Z,0.00
2019-03-25T01:39:04.734Z,0.00
2019-03-25T01:40:04.715Z,0.00
2019-03-25T01:41:04.782Z,0.00
2019-03-25T01:42:04.697Z,0.00
2019-03-25T01:43:04.689Z,0.00
2019-03-25T01:44:04.707Z,0.00
2019-03-25T01:45:04.660Z,0.00
2019-03-25T01:46:04.697Z,0.00
2019-03-25T01:47:04.651Z,0.00
2019-03-25T01:48:04.636Z,0.00
2019-03-25T01:49:04.624Z,0.00
2019-03-25T01:50:04.623Z,0.00
2019-03-25T01:51:04.595Z,0.00
2019-03-25T01:52:04.601Z,0.00
2019-03-25T01:53:04.609Z,0.00
2019-03-25T01:54:04.573Z,0.00
2019-03-25T01:55:13.067Z,0.00
2019-03-25T01:56:05.549Z,0.00
2019-03-25T01:57:04.565Z,0.00
2019-03-25T01:58:04.526Z,0.00
2019-03-25T01:59:04.516Z,0.00
2019-03-25T02:00:04.518Z,0.00
2019-03-25T02:01:04.501Z,0.00
2019-03-25T02:02:04.506Z,0.00
2019-03-25T02:03:04.505Z,0.00
2019-03-25T02:04:04.455Z,0.00
2019-03-25T02:05:04.494Z,0.00
2019-03-25T02:06:04.446Z,0.00
2019-03-25T02:07:04.501Z,0.00
2019-03-25T02:08:04.445Z,0.00
2019-03-25T02:09:04.434Z,0.00
2019-03-25T02:10:04.382Z,0.00
2019-03-25T02:11:04.403Z,0.00
2019-03-25T02:12:04.361Z,0.00
2019-03-25T02:13:04.408Z,0.00
2019-03-25T02:14:04.364Z,0.00
2019-03-25T02:15:04.396Z,0.00
2019-03-25T02:16:04.343Z,0.00
2019-03-25T02:17:04.312Z,0.00
2019-03-25T02:18:04.301Z,0.00
2019-03-25T02:19:04.353Z,0.00
2019-03-25T02:20:04.281Z,0.00
2019-03-25T02:21:04.263Z,0.00
2019-03-25T02:22:04.267Z,0.00
2019-03-25T02:23:04.501Z,0.00
2019-03-25T02:24:04.239Z,0.00
2019-03-25T02:25:04.287Z,0.00
2019-03-25T02:26:04.242Z,0.00
2019-03-25T02:27:04.196Z,0.00
2019-03-25T02:28:04.191Z,0.00
2019-03-25T02:29:04.198Z,0.00
2019-03-25T02:30:04.195Z,0.00
2019-03-25T02:31:04.160Z,0.00
2019-03-25T02:32:04.157Z,0.00
2019-03-25T02:33:04.147Z,0.00
2019-03-25T02:34:04.160Z,0.00
2019-03-25T02:35:04.148Z,0.00
2019-03-25T02:36:04.150Z,0.00
2019-03-25T02:37:04.101Z,0.00
2019-03-25T02:38:04.107Z,0.00
2019-03-25T02:39:04.078Z,0.00
2019-03-25T02:40:04.072Z,0.00
2019-03-25T02:41:04.157Z,0.00
2019-03-25T02:42:04.049Z,0.00
2019-03-25T02:43:04.046Z,0.00
2019-03-25T02:44:04.044Z,0.00
2019-03-25T02:45:04.014Z,0.00
2019-03-25T02:46:04.004Z,0.00
2019-03-25T02:47:04.151Z,0.00
2019-03-25T02:48:03.993Z,0.00
2019-03-25T02:49:03.969Z,0.00
2019-03-25T02:50:03.947Z,0.00
2019-03-25T02:51:03.959Z,0.00
2019-03-25T02:52:03.937Z,0.00
2019-03-25T02:53:03.921Z,0.00
2019-03-25T02:54:03.923Z,0.00
2019-03-25T02:55:03.898Z,0.00
2019-03-25T02:56:03.881Z,0.00
2019-03-25T02:57:04.003Z,0.00
2019-03-25T02:58:04.155Z,0.00
2019-03-25T02:59:03.872Z,0.00
2019-03-25T03:00:03.868Z,0.00
2019-03-25T03:01:03.887Z,0.00
2019-03-25T03:02:03.815Z,0.00
2019-03-25T03:03:03.822Z,0.00
2019-03-25T03:04:03.831Z,0.00
2019-03-25T03:05:03.815Z,0.00
2019-03-25T03:06:03.804Z,0.00
2019-03-25T03:07:03.875Z,0.00
2019-03-25T03:08:03.749Z,0.00
2019-03-25T03:09:03.755Z,0.00
2019-03-25T03:10:03.729Z,0.00
2019-03-25T03:11:03.727Z,0.00
2019-03-25T03:12:03.721Z,0.00
2019-03-25T03:13:03.728Z,0.00
2019-03-25T03:14:03.703Z,0.00
2019-03-25T03:15:03.686Z,0.00
2019-03-25T03:16:03.771Z,0.00
2019-03-25T03:17:03.652Z,0.00
2019-03-25T03:18:03.766Z,0.00
2019-03-25T03:19:03.678Z,0.00
2019-03-25T03:20:03.629Z,0.00
2019-03-25T03:21:03.611Z,0.00
2019-03-25T03:22:03.594Z,0.00
2019-03-25T03:23:03.612Z,0.00
2019-03-25T03:24:03.618Z,0.00
2019-03-25T03:25:03.582Z,0.00
2019-03-25T03:26:03.719Z,0.00
2019-03-25T03:27:03.580Z,0.00
2019-03-25T03:28:03.540Z,0.00
2019-03-25T03:29:03.549Z,0.00
2019-03-25T03:30:03.534Z,0.00
2019-03-25T03:31:03.519Z,0.00
2019-03-25T03:32:03.510Z,0.00
2019-03-25T03:33:03.517Z,0.00
2019-03-25T03:34:03.557Z,0.00
2019-03-25T03:35:03.546Z,0.00
2019-03-25T03:36:03.478Z,0.00
2019-03-25T03:37:03.440Z,0.00
2019-03-25T03:38:03.418Z,0.00
2019-03-25T03:39:03.421Z,0.00
2019-03-25T03:40:03.399Z,0.00
2019-03-25T03:41:03.425Z,0.00
2019-03-25T03:42:03.416Z,0.00
2019-03-25T03:43:03.379Z,0.00
2019-03-25T03:44:03.365Z,0.00
2019-03-25T03:45:03.359Z,0.00
2019-03-25T03:46:03.334Z,0.00
2019-03-25T03:47:03.347Z,0.00
2019-03-25T03:48:03.342Z,0.00
2019-03-25T03:49:03.306Z,0.00
2019-03-25T03:50:03.308Z,0.00
2019-03-25T03:51:03.316Z,0.00
2019-03-25T03:52:03.327Z,0.00
2019-03-25T03:53:03.280Z,0.00
2019-03-25T03:54:03.250Z,0.00
2019-03-25T03:55:03.273Z,0.00
2019-03-25T03:56:12.824Z,0.00
2019-03-25T03:57:04.256Z,0.00
2019-03-25T03:58:03.205Z,0.00
2019-03-25T03:59:03.191Z,0.00
2019-03-25T04:00:03.199Z,0.00
2019-03-25T04:01:03.164Z,0.00
2019-03-25T04:02:03.175Z,0.00
2019-03-25T04:03:03.147Z,0.00
2019-03-25T04:04:03.128Z,0.00
2019-03-25T04:05:03.132Z,0.00
2019-03-25T04:06:03.148Z,0.00
2019-03-25T04:07:03.119Z,0.00
2019-03-25T04:08:03.153Z,0.00
2019-03-25T04:09:03.108Z,0.00
2019-03-25T04:10:03.079Z,0.00
2019-03-25T04:11:03.105Z,0.00
2019-03-25T04:12:03.048Z,0.00
2019-03-25T04:13:03.028Z,0.00
2019-03-25T04:14:03.030Z,0.00
2019-03-25T04:15:03.031Z,0.00
2019-03-25T04:16:03.021Z,0.00
2019-03-25T04:17:03.009Z,0.00
2019-03-25T04:18:02.983Z,0.00
2019-03-25T04:19:02.982Z,0.00
2019-03-25T04:20:02.958Z,0.00
2019-03-25T04:21:03.085Z,0.00
2019-03-25T04:22:02.944Z,0.00
2019-03-25T04:23:02.927Z,0.00
2019-03-25T04:24:02.940Z,0.00
2019-03-25T04:25:02.909Z,0.00
2019-03-25T04:26:03.002Z,0.00
2019-03-25T04:27:02.914Z,0.00
2019-03-25T04:28:02.868Z,0.00
2019-03-25T04:29:02.858Z,0.00
2019-03-25T04:30:02.852Z,0.00
2019-03-25T04:31:02.850Z,0.00
2019-03-25T04:32:06.044Z,0.00
2019-03-25T04:33:02.817Z,0.00
2019-03-25T04:34:02.820Z,0.00
2019-03-25T04:35:02.792Z,0.00
2019-03-25T04:36:02.788Z,0.00
2019-03-25T04:37:02.777Z,0.00
2019-03-25T04:38:02.769Z,0.00
2019-03-25T04:39:02.766Z,0.00
2019-03-25T04:40:02.742Z,0.00
2019-03-25T04:41:02.717Z,0.00
2019-03-25T04:42:02.723Z,0.00
2019-03-25T04:43:02.730Z,0.00
2019-03-25T04:44:02.695Z,0.00
2019-03-25T04:45:02.701Z,0.00
2019-03-25T04:46:02.664Z,0.00
2019-03-25T04:47:02.657Z,0.00
2019-03-25T04:48:02.655Z,0.00
2019-03-25T04:49:02.622Z,0.00
2019-03-25T04:50:02.636Z,0.00
2019-03-25T04:51:02.615Z,0.00
2019-03-25T04:52:02.590Z,0.00
2019-03-25T04:53:02.594Z,0.00
2019-03-25T04:54:02.577Z,0.00
2019-03-25T04:55:02.601Z,0.00
2019-03-25T04:56:02.548Z,0.00
2019-03-25T04:57:02.543Z,0.00
2019-03-25T04:58:02.544Z,4.00
2019-03-25T04:59:02.529Z,0.00
2019-03-25T05:00:02.510Z,4.00
2019-03-25T05:01:02.493Z,4.00
2019-03-25T05:02:02.487Z,4.00
2019-03-25T05:03:02.481Z,4.00
2019-03-25T05:04:02.474Z,4.00
2019-03-25T05:05:02.449Z,4.00
2019-03-25T05:06:02.449Z,4.00
2019-03-25T05:07:02.422Z,4.00
2019-03-25T05:08:02.431Z,8.00
2019-03-25T05:09:02.433Z,4.00
2019-03-25T05:10:02.423Z,4.00
2019-03-25T05:11:03.818Z,8.00
2019-03-25T05:12:02.419Z,4.00
2019-03-25T05:13:02.371Z,4.00
2019-03-25T05:14:02.367Z,8.00
2019-03-25T05:15:02.363Z,8.00
2019-03-25T05:16:02.345Z,12.00
2019-03-25T05:17:02.316Z,12.00
2019-03-25T05:18:02.322Z,12.00
2019-03-25T05:19:02.330Z,16.00
2019-03-25T05:20:02.316Z,16.00
2019-03-25T05:21:02.329Z,16.00
2019-03-25T05:22:02.288Z,20.00
2019-03-25T05:23:02.250Z,28.00
2019-03-25T05:24:02.254Z,28.00
2019-03-25T05:25:02.256Z,28.00
2019-03-25T05:26:02.237Z,32.00
2019-03-25T05:27:02.224Z,32.00
2019-03-25T05:28:02.222Z,32.00
2019-03-25T05:29:02.186Z,44.00
2019-03-25T05:30:02.194Z,60.00
2019-03-25T05:31:02.168Z,68.00
2019-03-25T05:32:02.178Z,76.00
2019-03-25T05:33:02.168Z,72.00
2019-03-25T05:34:02.128Z,68.00
2019-03-25T05:35:02.136Z,76.00
2019-03-25T05:36:02.182Z,92.00
2019-03-25T05:37:02.112Z,96.00
2019-03-25T05:38:02.101Z,108.00
2019-03-25T05:39:02.660Z,132.00
2019-03-25T05:40:02.067Z,152.00
2019-03-25T05:41:02.047Z,156.00
2019-03-25T05:42:02.043Z,136.00
2019-03-25T05:43:02.082Z,164.00
2019-03-25T05:44:02.022Z,184.00
2019-03-25T05:45:02.008Z,172.00
2019-03-25T05:46:01.991Z,144.00
2019-03-25T05:47:01.984Z,140.00
2019-03-25T05:48:01.974Z,172.00
2019-03-25T05:49:01.967Z,188.00
2019-03-25T05:50:01.948Z,192.00
2019-03-25T05:51:01.942Z,200.00
2019-03-25T05:52:01.942Z,204.00
2019-03-25T05:53:01.980Z,272.00
2019-03-25T05:54:01.958Z,288.00
2019-03-25T05:55:01.898Z,344.00
2019-03-25T05:56:01.888Z,356.00
2019-03-25T05:57:02.942Z,388.00
2019-03-25T05:58:01.871Z,516.00
2019-03-25T05:59:01.853Z,392.00
2019-03-25T06:00:01.887Z,400.00
2019-03-25T06:01:01.835Z,380.00
2019-03-25T06:02:01.832Z,312.00
2019-03-25T06:03:01.825Z,392.00
2019-03-25T06:04:01.816Z,432.00
2019-03-25T06:05:01.796Z,392.00
2019-03-25T06:06:01.769Z,416.00
2019-03-25T06:07:01.792Z,520.00
2019-03-25T06:08:01.748Z,512.00
2019-03-25T06:09:01.737Z,452.00
2019-03-25T06:10:01.758Z,440.00
2019-03-25T06:11:01.722Z,516.00
2019-03-25T06:12:01.711Z,552.00
2019-03-25T06:13:01.714Z,576.00
2019-03-25T06:14:01.696Z,712.00
2019-03-25T06:15:01.697Z,616.00
2019-03-25T06:16:01.666Z,568.00
2019-03-25T06:17:01.648Z,564.00
2019-03-25T06:18:01.642Z,668.00
2019-03-25T06:19:01.627Z,772.00
2019-03-25T06:20:01.621Z,652.00
2019-03-25T06:21:01.611Z,508.00
2019-03-25T06:22:01.636Z,488.00
2019-03-25T06:23:01.581Z,488.00
2019-03-25T06:24:01.578Z,536.00
2019-03-25T06:25:01.584Z,592.00
2019-03-25T06:26:01.561Z,636.00
2019-03-25T06:27:01.543Z,672.00
2019-03-25T06:28:01.531Z,596.00
2019-03-25T06:29:01.544Z,556.00
2019-03-25T06:30:01.547Z,560.00
2019-03-25T06:31:01.527Z,616.00
2019-03-25T06:32:01.500Z,640.00
2019-03-25T06:33:12.042Z,516.00
2019-03-25T06:34:02.460Z,476.00
2019-03-25T06:35:01.451Z,420.00
2019-03-25T06:36:01.443Z,428.00
2019-03-25T06:37:01.470Z,440.00
2019-03-25T06:38:01.473Z,444.00
2019-03-25T06:39:01.414Z,460.00
2019-03-25T06:40:01.396Z,492.00
2019-03-25T06:41:01.426Z,536.00
2019-03-25T06:42:01.383Z,584.00
2019-03-25T06:43:01.370Z,616.00
2019-03-25T06:44:01.356Z,620.00
2019-03-25T06:45:01.352Z,596.00
2019-03-25T06:46:01.329Z,612.00
2019-03-25T06:47:01.324Z,640.00
2019-03-25T06:48:01.328Z,648.00
2019-03-25T06:49:01.296Z,648.00
2019-03-25T06:50:01.284Z,652.00
2019-03-25T06:51:01.279Z,656.00
2019-03-25T06:52:01.266Z,656.00
2019-03-25T06:53:02.165Z,656.00
2019-03-25T06:54:01.248Z,648.00
2019-03-25T06:55:01.229Z,652.00
2019-03-25T06:56:01.220Z,660.00
2019-03-25T06:57:01.220Z,660.00
2019-03-25T06:58:01.199Z,668.00
2019-03-25T06:59:01.230Z,676.00
2019-03-25T07:00:01.176Z,692.00
2019-03-25T07:01:01.180Z,724.00
2019-03-25T07:02:01.153Z,720.00
2019-03-25T07:03:01.141Z,740.00
2019-03-25T07:04:01.143Z,752.00
2019-03-25T07:05:01.112Z,748.00
2019-03-25T07:06:01.117Z,720.00
2019-03-25T07:07:01.100Z,700.00
2019-03-25T07:08:01.094Z,716.00
2019-03-25T07:09:01.076Z,704.00
2019-03-25T07:10:01.072Z,688.00
2019-03-25T07:11:01.048Z,652.00
2019-03-25T07:12:01.041Z,636.00
2019-03-25T07:13:01.031Z,660.00
2019-03-25T07:14:01.017Z,684.00
2019-03-25T07:15:01.068Z,672.00
2019-03-25T07:16:00.993Z,656.00
2019-03-25T07:17:00.993Z,700.00
2019-03-25T07:18:00.982Z,712.00
2019-03-25T07:19:00.969Z,700.00
2019-03-25T07:20:00.950Z,716.00
2019-03-25T07:21:01.020Z,728.00
2019-03-25T07:22:00.927Z,736.00
2019-03-25T07:23:00.932Z,692.00
2019-03-25T07:24:00.915Z,732.00
2019-03-25T07:25:00.908Z,728.00
2019-03-25T07:26:00.906Z,720.00
2019-03-25T07:27:00.876Z,748.00
2019-03-25T07:28:00.868Z,748.00
2019-03-25T07:29:00.848Z,744.00
2019-03-25T07:30:00.856Z,748.00
2019-03-25T07:31:00.825Z,736.00
2019-03-25T07:32:00.837Z,724.00
2019-03-25T07:33:00.811Z,704.00
2019-03-25T07:34:00.803Z,728.00
2019-03-25T07:35:00.808Z,704.00
2019-03-25T07:36:00.776Z,692.00
2019-03-25T07:37:00.797Z,684.00
2019-03-25T07:38:00.762Z,728.00
2019-03-25T07:39:00.757Z,744.00
2019-03-25T07:40:00.766Z,768.00
2019-03-25T07:41:00.728Z,740.00
2019-03-25T07:42:00.731Z,776.00
2019-03-25T07:43:00.718Z,784.00
2019-03-25T07:44:00.716Z,792.00
2019-03-25T07:45:00.698Z,804.00
2019-03-25T07:46:00.685Z,832.00
2019-03-25T07:47:00.670Z,856.00
2019-03-25T07:48:00.705Z,864.00
2019-03-25T07:49:00.658Z,880.00
2019-03-25T07:50:00.649Z,896.00
2019-03-25T07:51:00.618Z,916.00
2019-03-25T07:52:00.602Z,900.00
2019-03-25T07:53:00.590Z,872.00
2019-03-25T07:54:00.596Z,960.00
2019-03-25T07:55:00.575Z,968.00
2019-03-25T07:56:00.568Z,1016.00
2019-03-25T07:57:00.580Z,1084.00
2019-03-25T07:58:00.578Z,1152.00
2019-03-25T07:59:00.562Z,1176.00
2019-03-25T08:00:00.541Z,1264.00
2019-03-25T08:01:00.554Z,1360.00
2019-03-25T08:02:00.598Z,1492.00
2019-03-25T08:03:00.485Z,1580.00
2019-03-25T08:04:00.541Z,1588.00
2019-03-25T08:05:00.539Z,1564.00
2019-03-25T08:06:00.450Z,1636.00
2019-03-25T08:07:00.521Z,1704.00
2019-03-25T08:08:00.501Z,1688.00
2019-03-25T08:09:03.984Z,1636.00
2019-03-25T08:10:00.413Z,1720.00
2019-03-25T08:11:00.414Z,1792.00
2019-03-25T08:12:00.377Z,1840.00
2019-03-25T08:13:00.449Z,1840.00
2019-03-25T08:14:00.389Z,1940.00
2019-03-25T08:15:00.451Z,1856.00
2019-03-25T08:16:00.342Z,1740.00
2019-03-25T08:17:00.328Z,1728.00
2019-03-25T08:18:00.345Z,1636.00
2019-03-25T08:19:00.298Z,1428.00
2019-03-25T08:20:00.310Z,1404.00
2019-03-25T08:21:00.290Z,1360.00
2019-03-25T08:22:00.726Z,1240.00
2019-03-25T08:23:00.260Z,1320.00
2019-03-25T08:24:00.260Z,1168.00
2019-03-25T08:25:00.365Z,1176.00
2019-03-25T08:26:00.225Z,1072.00
2019-03-25T08:27:00.253Z,1172.00
2019-03-25T08:28:00.681Z,1288.00
2019-03-25T08:29:00.205Z,1316.00
2019-03-25T08:30:00.361Z,1376.00
2019-03-25T08:31:00.174Z,1492.00
2019-03-25T08:32:00.162Z,1600.00
2019-03-25T08:33:00.190Z,1768.00
2019-03-25T08:34:00.139Z,1700.00
2019-03-25T08:35:00.381Z,1768.00
2019-03-25T08:36:00.190Z,1716.00
2019-03-25T08:37:00.160Z,1712.00
2019-03-25T08:38:00.165Z,1592.00
2019-03-25T08:39:00.155Z,1560.00
2019-03-25T08:40:00.297Z,1688.00
2019-03-25T08:41:00.104Z,1668.00
2019-03-25T08:42:00.051Z,1664.00
2019-03-25T08:43:00.042Z,1696.00
2019-03-25T08:44:00.046Z,1656.00
2019-03-25T08:45:00.029Z,1632.00
2019-03-25T08:46:00.004Z,1700.00
2019-03-25T08:46:59.994Z,1752.00
2019-03-25T08:48:00.017Z,1860.00
2019-03-25T08:48:59.972Z,1848.00
2019-03-25T08:49:59.961Z,1780.00
2019-03-25T08:50:59.987Z,1664.00
2019-03-25T08:51:59.944Z,1604.00
2019-03-25T08:53:00.203Z,1512.00
2019-03-25T08:54:00.219Z,1588.00
2019-03-25T08:54:59.933Z,1632.00
2019-03-25T08:55:59.925Z,1568.00
2019-03-25T08:56:59.903Z,1552.00
2019-03-25T08:58:11.226Z,1704.00
2019-03-25T08:59:00.921Z,1724.00
2019-03-25T08:59:59.896Z,1748.00
2019-03-25T09:00:59.924Z,1656.00
2019-03-25T09:01:59.844Z,1744.00
2019-03-25T09:02:59.865Z,1704.00
2019-03-25T09:03:59.807Z,1752.00
2019-03-25T09:04:59.945Z,1800.00
2019-03-25T09:05:59.848Z,1872.00
2019-03-25T09:06:59.859Z,1728.00
2019-03-25T09:08:00.189Z,1536.00
2019-03-25T09:08:59.786Z,1424.00
2019-03-25T09:09:59.753Z,1332.00
2019-03-25T09:10:59.732Z,1220.00
2019-03-25T09:11:59.722Z,1212.00
2019-03-25T09:12:59.750Z,1248.00
2019-03-25T09:13:59.739Z,1380.00
2019-03-25T09:14:59.691Z,1428.00
2019-03-25T09:15:59.727Z,1380.00
2019-03-25T09:17:00.665Z,1380.00
2019-03-25T09:17:59.716Z,1328.00
2019-03-25T09:18:59.693Z,1184.00
2019-03-25T09:19:59.682Z,1048.00
2019-03-25T09:20:59.639Z,1024.00
2019-03-25T09:21:59.652Z,876.00
2019-03-25T09:22:59.652Z,712.00
2019-03-25T09:23:59.664Z,612.00
2019-03-25T09:24:59.600Z,620.00
2019-03-25T09:25:59.617Z,616.00
2019-03-25T09:26:59.561Z,648.00
2019-03-25T09:27:59.544Z,732.00
2019-03-25T09:28:59.551Z,812.00
2019-03-25T09:29:59.523Z,880.00
2019-03-25T09:30:59.513Z,928.00
2019-03-25T09:31:59.506Z,960.00
2019-03-25T09:32:59.486Z,952.00
2019-03-25T09:33:59.478Z,956.00
2019-03-25T09:34:59.488Z,996.00
2019-03-25T09:35:59.545Z,1072.00
2019-03-25T09:36:59.443Z,1132.00
2019-03-25T09:37:59.442Z,1128.00
2019-03-25T09:38:59.422Z,1076.00
2019-03-25T09:39:59.426Z,1072.00
2019-03-25T09:40:59.394Z,1064.00
2019-03-25T09:41:59.400Z,1080.00
2019-03-25T09:42:59.375Z,1132.00
2019-03-25T09:43:59.369Z,1152.00
2019-03-25T09:44:59.357Z,1228.00
2019-03-25T09:45:59.358Z,1332.00
2019-03-25T09:46:59.340Z,1432.00
2019-03-25T09:47:59.321Z,1460.00
2019-03-25T09:48:59.314Z,1520.00
2019-03-25T09:49:59.318Z,1568.00
2019-03-25T09:50:59.313Z,1560.00
2019-03-25T09:51:59.276Z,1540.00
2019-03-25T09:52:59.269Z,1516.00
2019-03-25T09:53:59.256Z,1544.00
2019-03-25T09:54:59.239Z,1552.00
2019-03-25T09:55:59.299Z,1548.00
2019-03-25T09:56:59.228Z,1524.00
2019-03-25T09:57:59.223Z,1472.00
2019-03-25T09:58:59.212Z,1396.00
2019-03-25T09:59:59.189Z,1364.00
2019-03-25T10:00:59.176Z,1328.00
2019-03-25T10:01:59.209Z,1308.00
2019-03-25T10:02:59.179Z,1324.00
2019-03-25T10:03:59.142Z,1380.00
2019-03-25T10:04:59.133Z,1492.00
2019-03-25T10:05:59.129Z,1616.00
2019-03-25T10:06:59.130Z,1688.00
2019-03-25T10:07:59.131Z,1716.00
2019-03-25T10:08:59.096Z,1680.00
2019-03-25T10:09:59.075Z,1612.00
2019-03-25T10:10:59.074Z,1544.00
2019-03-25T10:11:59.052Z,1508.00
2019-03-25T10:12:59.048Z,1548.00
2019-03-25T10:13:59.054Z,1592.00
2019-03-25T10:14:59.020Z,1656.00
2019-03-25T10:15:59.037Z,1668.00
2019-03-25T10:16:59.021Z,1624.00
2019-03-25T10:17:58.983Z,1552.00
2019-03-25T10:18:59.001Z,1504.00
2019-03-25T10:19:58.969Z,1468.00
2019-03-25T10:20:58.981Z,1420.00
2019-03-25T10:21:58.944Z,1388.00
2019-03-25T10:22:58.939Z,1416.00
2019-03-25T10:23:59.037Z,1396.00
2019-03-25T10:24:58.918Z,1460.00
2019-03-25T10:25:58.901Z,1604.00
2019-03-25T10:26:58.910Z,1928.00
2019-03-25T10:27:58.883Z,2064.00
2019-03-25T10:28:58.883Z,2124.00
2019-03-25T10:29:58.885Z,2208.00
2019-03-25T10:30:58.857Z,1900.00
2019-03-25T10:31:58.848Z,1692.00
2019-03-25T10:32:58.851Z,1636.00
2019-03-25T10:33:58.818Z,1620.00
2019-03-25T10:34:58.822Z,1868.00
2019-03-25T10:35:58.812Z,2044.00
2019-03-25T10:36:58.792Z,2304.00
2019-03-25T10:37:58.771Z,2084.00
2019-03-25T10:38:58.750Z,1556.00
2019-03-25T10:39:58.750Z,1304.00
2019-03-25T10:40:58.747Z,1108.00
2019-03-25T10:41:58.726Z,952.00
2019-03-25T10:43:00.010Z,868.00
2019-03-25T10:43:58.700Z,824.00
2019-03-25T10:44:58.718Z,792.00
2019-03-25T10:45:58.682Z,680.00
2019-03-25T10:46:58.665Z,632.00
2019-03-25T10:47:58.721Z,712.00
2019-03-25T10:48:58.646Z,904.00
2019-03-25T10:49:58.638Z,852.00
2019-03-25T10:50:58.631Z,692.00
2019-03-25T10:51:58.616Z,572.00
2019-03-25T10:52:58.598Z,552.00
2019-03-25T10:53:58.588Z,628.00
2019-03-25T10:55:58.566Z,772.00
2019-03-25T10:56:58.552Z,1064.00
2019-03-25T10:57:58.555Z,1276.00
2019-03-25T10:58:58.666Z,1760.00
2019-03-25T10:59:58.597Z,2088.00
2019-03-25T11:00:58.515Z,2196.00
2019-03-25T11:01:58.504Z,2224.00
2019-03-25T11:02:58.487Z,2264.00
2019-03-25T11:03:58.474Z,2400.00
2019-03-25T11:04:58.533Z,2332.00
2019-03-25T11:05:58.456Z,2436.00
2019-03-25T11:06:58.445Z,2404.00
2019-03-25T11:07:58.430Z,2440.00
2019-03-25T11:08:58.435Z,2380.00
2019-03-25T11:09:58.523Z,2244.00
2019-03-25T11:10:58.426Z,2164.00
2019-03-25T11:11:58.401Z,2256.00
2019-03-25T11:12:58.401Z,2356.00
2019-03-25T11:13:58.367Z,2280.00
2019-03-25T11:14:58.360Z,2276.00
2019-03-25T11:15:58.355Z,2176.00
2019-03-25T11:16:58.332Z,2080.00
2019-03-25T11:17:58.346Z,2004.00
2019-03-25T11:18:58.307Z,1956.00
2019-03-25T11:19:58.352Z,2004.00
2019-03-25T11:20:58.303Z,2108.00
2019-03-25T11:21:58.285Z,2060.00
2019-03-25T11:22:58.264Z,2032.00
2019-03-25T11:23:58.286Z,1932.00
2019-03-25T11:24:58.266Z,1956.00
2019-03-25T11:25:58.235Z,2132.00
2019-03-25T11:26:58.235Z,2072.00
2019-03-25T11:27:58.208Z,1980.00
2019-03-25T11:29:04.391Z,1688.00
2019-03-25T11:29:59.189Z,1384.00
2019-03-25T11:30:58.174Z,1384.00
2019-03-25T11:31:58.171Z,1488.00
2019-03-25T11:32:58.203Z,1276.00
2019-03-25T11:33:58.145Z,1268.00
2019-03-25T11:34:58.140Z,1112.00
2019-03-25T11:35:58.124Z,1004.00
2019-03-25T11:36:58.124Z,1072.00
2019-03-25T11:37:58.105Z,1252.00
2019-03-25T11:38:58.129Z,1436.00
2019-03-25T11:39:58.078Z,1564.00
2019-03-25T11:40:58.072Z,1300.00
2019-03-25T11:41:58.117Z,1080.00
2019-03-25T11:42:58.042Z,1208.00
2019-03-25T11:43:58.061Z,1340.00
2019-03-25T11:44:58.034Z,1640.00
2019-03-25T11:45:58.035Z,1860.00
2019-03-25T11:46:58.005Z,2020.00
2019-03-25T11:47:58.003Z,2184.00
2019-03-25T11:48:58.009Z,2420.00
2019-03-25T11:49:58.018Z,2360.00
2019-03-25T11:50:57.980Z,1960.00
2019-03-25T11:51:57.957Z,1768.00
2019-03-25T11:52:57.995Z,2068.00
2019-03-25T11:53:58.748Z,2180.00
2019-03-25T11:54:58.058Z,2128.00
2019-03-25T11:55:58.738Z,1996.00
2019-03-25T11:56:57.948Z,2188.00
2019-03-25T11:57:57.906Z,1948.00
2019-03-25T11:58:57.890Z,1612.00
2019-03-25T11:59:57.893Z,1364.00
2019-03-25T12:00:57.865Z,1348.00
2019-03-25T12:01:57.852Z,1276.00
2019-03-25T12:02:57.841Z,1376.00
2019-03-25T12:03:57.827Z,1288.00
2019-03-25T12:04:57.799Z,1120.00
2019-03-25T12:05:57.807Z,1120.00
2019-03-25T12:06:57.776Z,1184.00
2019-03-25T12:07:57.790Z,1276.00
2019-03-25T12:08:57.778Z,1656.00
2019-03-25T12:09:57.786Z,1724.00
2019-03-25T12:10:57.749Z,1740.00
2019-03-25T12:11:57.736Z,1768.00
2019-03-25T12:12:57.719Z,1452.00
2019-03-25T12:13:57.701Z,1204.00
2019-03-25T12:14:57.713Z,956.00
2019-03-25T12:15:57.701Z,724.00
2019-03-25T12:16:57.690Z,620.00
2019-03-25T12:17:57.673Z,532.00
2019-03-25T12:18:57.645Z,492.00
2019-03-25T12:19:57.642Z,508.00
2019-03-25T12:20:57.627Z,640.00
2019-03-25T12:21:57.625Z,632.00
2019-03-25T12:22:57.644Z,632.00
2019-03-25T12:23:57.591Z,644.00
2019-03-25T12:24:57.635Z,736.00
2019-03-25T12:25:57.595Z,596.00
2019-03-25T12:26:57.580Z,512.00
2019-03-25T12:27:57.577Z,508.00
2019-03-25T12:28:57.537Z,584.00
2019-03-25T12:29:57.530Z,748.00
2019-03-25T12:30:57.519Z,888.00
2019-03-25T12:31:57.515Z,992.00
2019-03-25T12:33:03.951Z,1024.00
2019-03-25T12:33:58.509Z,1132.00
2019-03-25T12:34:57.471Z,940.00
2019-03-25T12:35:57.476Z,852.00
2019-03-25T12:36:58.206Z,800.00
2019-03-25T12:37:57.439Z,824.00
2019-03-25T12:38:57.435Z,912.00
2019-03-25T12:39:57.425Z,1092.00
2019-03-25T12:40:57.402Z,1028.00
2019-03-25T12:41:57.445Z,1120.00